Time;durP1;ratioP1;P1;durP2;ratioP2;P2;SDS_P1;SDS_P2;PMS_P1;PMS_P2;Temp;Humidity;BMP_temperature;BMP_pressure;BME280_temperature;BME280_humidity;BME280_pressure;Samples;Min_cycle;Max_cycle;Signal;HPM_P1;HPM_P2
2022/09/02 00:01:47;;;;;;;;;8.00;6.67;;;;;;;;5040822;28;45317;-65
2022/09/02 00:04:15;;;;;;;;;9.67;9.67;;;;;;;;5045080;28;46525;-65
2022/09/02 00:06:42;;;;;;;;;10.00;10.00;;;;;;;;5042375;28;45535;-64
2022/09/02 00:09:08;;;;;;;;;11.33;10.00;;;;;;;;5045315;28;45179;-66
2022/09/02 00:11:35;;;;;;;;;11.33;10.00;;;;;;;;5041644;28;45168;-64
2022/09/02 00:14:02;;;;;;;;;10.67;10.67;;;;;;;;5042848;28;45511;-65
2022/09/02 00:16:28;;;;;;;;;9.67;9.67;;;;;;;;5041847;28;45410;-65
2022/09/02 00:18:55;;;;;;;;;10.00;9.00;;;;;;;;5043895;28;45516;-65
2022/09/02 00:21:20;;;;;;;;;8.67;8.67;;;;;;;;5043143;28;45420;-65
2022/09/02 00:23:46;;;;;;;;;8.67;8.67;;;;;;;;5041451;28;46509;-64
2022/09/02 00:26:12;;;;;;;;;11.33;10.00;;;;;;;;5043291;28;45265;-65
2022/09/02 00:28:38;;;;;;;;;10.33;9.00;;;;;;;;5040431;28;45222;-66
2022/09/02 00:31:03;;;;;;;;;10.33;10.33;;;;;;;;5043645;28;45413;-65
2022/09/02 00:33:30;;;;;;;;;9.33;9.33;;;;;;;;5041183;28;45338;-66
2022/09/02 00:35:56;;;;;;;;;7.00;7.00;;;;;;;;5044305;28;45235;-66
2022/09/02 00:38:22;;;;;;;;;11.00;11.00;;;;;;;;5041445;28;45503;-66
2022/09/02 00:40:48;;;;;;;;;9.67;9.67;;;;;;;;5039404;28;45580;-66
2022/09/02 00:43:46;;;;;;;;;8.00;8.00;;;;;;;;5042188;28;45320;-66
2022/09/02 00:46:12;;;;;;;;;8.00;8.00;;;;;;;;5008233;28;45472;-66
2022/09/02 00:48:39;;;;;;;;;9.67;8.67;;;;;;;;5044257;28;45408;-66
2022/09/02 00:51:05;;;;;;;;;9.00;9.00;;;;;;;;5057854;28;45245;-66
2022/09/02 00:53:31;;;;;;;;;8.67;8.00;;;;;;;;5039553;28;45225;-66
2022/09/02 00:55:57;;;;;;;;;10.00;10.00;;;;;;;;5044474;28;45523;-66
2022/09/02 00:58:24;;;;;;;;;9.33;9.33;;;;;;;;5038327;28;45406;-66
2022/09/02 01:00:55;;;;;;;;;9.67;8.67;;;;;;;;5044306;28;45361;-65
2022/09/02 01:03:21;;;;;;;;;10.00;10.00;;;;;;;;5039541;28;46120;-66
2022/09/02 01:05:47;;;;;;;;;6.00;6.00;;;;;;;;5044523;28;45333;-65
2022/09/02 01:08:14;;;;;;;;;9.00;9.00;;;;;;;;5038135;28;45404;-65
2022/09/02 01:10:40;;;;;;;;;12.00;10.00;;;;;;;;5044841;28;45463;-65
2022/09/02 01:13:07;;;;;;;;;8.33;8.33;;;;;;;;5052357;28;48526;-65
2022/09/02 01:15:35;;;;;;;;;10.67;9.00;;;;;;;;5044035;28;45400;-65
2022/09/02 01:18:01;;;;;;;;;8.33;8.33;;;;;;;;5040475;28;45412;-64
2022/09/02 01:20:26;;;;;;;;;11.67;11.67;;;;;;;;5044370;28;45405;-65
2022/09/02 01:22:52;;;;;;;;;9.33;9.33;;;;;;;;5039771;28;45595;-64
2022/09/02 01:25:22;;;;;;;;;8.67;8.67;;;;;;;;5044073;28;45271;-65
2022/09/02 01:27:48;;;;;;;;;11.33;8.33;;;;;;;;5054818;28;45260;-64
2022/09/02 01:30:20;;;;;;;;;8.67;8.67;;;;;;;;5044075;28;45703;-65
2022/09/02 01:32:45;;;;;;;;;11.67;9.00;;;;;;;;5039307;28;45475;-65
2022/09/02 01:35:11;;;;;;;;;7.67;7.67;;;;;;;;5044099;28;45398;-65
2022/09/02 01:37:38;;;;;;;;;11.00;9.00;;;;;;;;5043155;28;45372;-65
2022/09/02 01:40:04;;;;;;;;;9.67;9.67;;;;;;;;5044267;28;45464;-65
2022/09/02 01:42:29;;;;;;;;;8.00;8.00;;;;;;;;5057250;28;46588;-65
2022/09/02 01:44:54;;;;;;;;;9.00;9.00;;;;;;;;5043613;28;45305;-65
2022/09/02 01:47:22;;;;;;;;;7.00;7.00;;;;;;;;5042159;28;45367;-64
2022/09/02 01:49:48;;;;;;;;;12.00;10.67;;;;;;;;5042500;28;45249;-65
2022/09/02 01:52:14;;;;;;;;;11.67;9.67;;;;;;;;5041756;28;45335;-64
2022/09/02 01:54:39;;;;;;;;;9.00;7.33;;;;;;;;5043857;28;45331;-65
2022/09/02 01:57:04;;;;;;;;;11.00;9.00;;;;;;;;5041548;28;45306;-65
2022/09/02 01:59:30;;;;;;;;;11.00;10.00;;;;;;;;5044078;28;45621;-65
2022/09/02 02:01:55;;;;;;;;;9.67;9.67;;;;;;;;5053519;28;46790;-64
2022/09/02 02:04:23;;;;;;;;;10.33;10.33;;;;;;;;5043788;28;45317;-64
2022/09/02 02:06:49;;;;;;;;;10.67;8.67;;;;;;;;5038155;28;45264;-65
2022/09/02 02:09:15;;;;;;;;;11.33;8.67;;;;;;;;5043977;28;45202;-65
2022/09/02 02:11:40;;;;;;;;;11.00;11.00;;;;;;;;5054253;28;47021;-65
2022/09/02 02:14:05;;;;;;;;;11.33;11.00;;;;;;;;5040410;28;45388;-65
2022/09/02 02:16:31;;;;;;;;;9.67;9.00;;;;;;;;5040149;28;45390;-64
2022/09/02 02:18:56;;;;;;;;;10.00;10.00;;;;;;;;5041412;28;45580;-65
2022/09/02 02:21:21;;;;;;;;;10.00;10.00;;;;;;;;5056462;28;46720;-64
2022/09/02 02:23:47;;;;;;;;;9.67;9.00;;;;;;;;5039167;28;45525;-65
2022/09/02 02:26:12;;;;;;;;;9.00;8.33;;;;;;;;5042014;28;45308;-64
2022/09/02 02:28:37;;;;;;;;;10.00;10.00;;;;;;;;5039019;28;45238;-64
2022/09/02 02:31:03;;;;;;;;;8.00;7.67;;;;;;;;5041712;28;46264;-64
2022/09/02 02:33:28;;;;;;;;;12.33;11.33;;;;;;;;5040894;28;45317;-65
2022/09/02 02:35:54;;;;;;;;;12.00;11.33;;;;;;;;5042773;28;45368;-64
2022/09/02 02:38:20;;;;;;;;;7.00;7.00;;;;;;;;5056489;28;45537;-65
2022/09/02 02:40:45;;;;;;;;;13.00;12.00;;;;;;;;5043081;28;45417;-64
2022/09/02 02:43:10;;;;;;;;;13.33;11.33;;;;;;;;5039311;28;45380;-65
2022/09/02 02:45:35;;;;;;;;;18.33;17.00;;;;;;;;5043173;28;45740;-65
2022/09/02 02:48:01;;;;;;;;;17.25;16.50;;;;;;;;5040860;28;45287;-64
2022/09/02 02:50:26;;;;;;;;;21.25;17.25;;;;;;;;5058429;28;47134;-65
2022/09/02 02:52:53;;;;;;;;;33.25;27.25;;;;;;;;5056235;28;45274;-65
2022/09/02 02:55:19;;;;;;;;;29.00;26.75;;;;;;;;5043069;28;45278;-65
2022/09/02 02:57:45;;;;;;;;;31.50;29.00;;;;;;;;5038953;28;45429;-64
2022/09/02 03:00:30;;;;;;;;;30.75;27.00;;;;;;;;5055478;28;48056;-65
2022/09/02 03:03:00;;;;;;;;;24.25;21.75;;;;;;;;5034603;28;45414;-65
2022/09/02 03:05:26;;;;;;;;;22.50;21.50;;;;;;;;5058123;28;45390;-64
2022/09/02 03:07:51;;;;;;;;;9.75;9.00;;;;;;;;5036516;28;46135;-65
2022/09/02 03:10:17;;;;;;;;;18.25;17.25;;;;;;;;5042759;28;45375;-64
2022/09/02 03:12:46;;;;;;;;;21.00;15.75;;;;;;;;5031002;28;45476;-64
2022/09/02 03:15:11;;;;;;;;;12.33;11.67;;;;;;;;5035401;28;45393;-64
2022/09/02 03:17:37;;;;;;;;;15.50;15.00;;;;;;;;5050937;28;45511;-65
2022/09/02 03:20:04;;;;;;;;;13.00;12.33;;;;;;;;5039306;28;46347;-65
2022/09/02 03:22:29;;;;;;;;;10.33;9.67;;;;;;;;5035604;28;45487;-64
2022/09/02 03:24:54;;;;;;;;;13.00;12.33;;;;;;;;5042589;28;45454;-64
2022/09/02 03:27:19;;;;;;;;;16.00;14.50;;;;;;;;5037838;28;45397;-64
2022/09/02 03:29:44;;;;;;;;;12.33;12.33;;;;;;;;5042048;28;46391;-64
2022/09/02 03:32:10;;;;;;;;;13.75;13.75;;;;;;;;5037867;28;45370;-66
2022/09/02 03:34:35;;;;;;;;;16.67;15.33;;;;;;;;5042515;28;45519;-64
2022/09/02 03:37:01;;;;;;;;;29.25;26.75;;;;;;;;5040664;28;45511;-64
2022/09/02 03:39:26;;;;;;;;;64.00;52.00;;;;;;;;5054484;28;47997;-65
2022/09/02 03:41:52;;;;;;;;;76.25;58.50;;;;;;;;5039433;28;45424;-64
2022/09/02 03:44:17;;;;;;;;;68.50;54.00;;;;;;;;5040739;28;45405;-64
2022/09/02 03:46:42;;;;;;;;;60.50;47.50;;;;;;;;5039674;28;45404;-64
2022/09/02 03:49:07;;;;;;;;;63.25;48.75;;;;;;;;5033037;28;46554;-65
2022/09/02 03:51:33;;;;;;;;;43.00;35.25;;;;;;;;5038933;28;45434;-65
2022/09/02 03:53:58;;;;;;;;;25.25;22.50;;;;;;;;5054148;28;45244;-65
2022/09/02 03:56:24;;;;;;;;;21.75;19.25;;;;;;;;5042002;28;45481;-65
2022/09/02 03:58:50;;;;;;;;;21.25;20.50;;;;;;;;5035236;28;45420;-64
2022/09/02 04:01:16;;;;;;;;;12.67;12.67;;;;;;;;5050223;28;45366;-64
2022/09/02 04:03:42;;;;;;;;;14.33;13.67;;;;;;;;5036733;28;45716;-65
2022/09/02 04:06:09;;;;;;;;;13.67;13.67;;;;;;;;5040285;28;45412;-64
2022/09/02 04:08:34;;;;;;;;;16.00;13.33;;;;;;;;5037429;28;45559;-64
2022/09/02 04:11:03;;;;;;;;;13.33;12.00;;;;;;;;5040609;28;45384;-65
2022/09/02 04:13:28;;;;;;;;;16.33;14.33;;;;;;;;5037831;28;45218;-64
2022/09/02 04:15:53;;;;;;;;;14.00;13.00;;;;;;;;5041687;28;45117;-64
2022/09/02 04:18:19;;;;;;;;;13.33;13.33;;;;;;;;5039516;28;45236;-64
2022/09/02 04:20:44;;;;;;;;;13.67;13.67;;;;;;;;5041720;28;45172;-64
2022/09/02 04:23:10;;;;;;;;;17.67;15.67;;;;;;;;5051180;28;45521;-64
2022/09/02 04:25:39;;;;;;;;;16.00;16.00;;;;;;;;5044180;28;45296;-64
2022/09/02 04:28:05;;;;;;;;;19.75;17.25;;;;;;;;5039792;28;46489;-64
2022/09/02 04:30:30;;;;;;;;;23.50;18.50;;;;;;;;5044502;28;45491;-64
2022/09/02 04:32:55;;;;;;;;;21.75;20.25;;;;;;;;5039678;28;45315;-65
2022/09/02 04:35:20;;;;;;;;;24.50;23.25;;;;;;;;5041817;28;45372;-65
2022/09/02 04:37:47;;;;;;;;;25.00;22.00;;;;;;;;5040379;28;46174;-65
2022/09/02 04:40:13;;;;;;;;;21.50;20.75;;;;;;;;5042771;28;45543;-66
2022/09/02 04:42:38;;;;;;;;;32.25;31.25;;;;;;;;5041315;28;45535;-65
2022/09/02 04:45:03;;;;;;;;;27.75;24.25;;;;;;;;5042536;28;45428;-65
2022/09/02 04:47:29;;;;;;;;;24.00;22.50;;;;;;;;5038655;28;46433;-64
2022/09/02 04:49:55;;;;;;;;;21.25;20.00;;;;;;;;5044616;28;45238;-65
2022/09/02 04:52:20;;;;;;;;;22.50;20.25;;;;;;;;5042480;28;45302;-65
2022/09/02 04:54:45;;;;;;;;;18.50;16.50;;;;;;;;5044839;28;45578;-65
2022/09/02 04:57:11;;;;;;;;;20.75;19.00;;;;;;;;5039839;28;46598;-65
2022/09/02 04:59:36;;;;;;;;;18.25;17.00;;;;;;;;5059630;28;45419;-66
2022/09/02 05:02:02;;;;;;;;;18.00;18.00;;;;;;;;5038611;28;45379;-65
2022/09/02 05:04:28;;;;;;;;;18.75;18.75;;;;;;;;5043563;28;45362;-65
2022/09/02 05:06:54;;;;;;;;;42.00;36.75;;;;;;;;5037894;28;46169;-66
2022/09/02 05:09:20;;;;;;;;;52.50;43.75;;;;;;;;5059467;28;45713;-66
2022/09/02 05:11:47;;;;;;;;;68.75;51.50;;;;;;;;5039267;28;45314;-66
2022/09/02 05:14:12;;;;;;;;;66.00;53.00;;;;;;;;5058441;28;45485;-65
2022/09/02 05:16:38;;;;;;;;;70.75;55.00;;;;;;;;5039900;28;45380;-66
2022/09/02 05:19:05;;;;;;;;;69.50;55.25;;;;;;;;5040661;28;45302;-65
2022/09/02 05:21:30;;;;;;;;;64.50;53.25;;;;;;;;5041484;28;45500;-65
2022/09/02 05:23:56;;;;;;;;;59.75;48.50;;;;;;;;5040704;28;45620;-66
2022/09/02 05:26:21;;;;;;;;;64.00;50.25;;;;;;;;5040619;28;45549;-66
2022/09/02 05:28:47;;;;;;;;;68.00;50.25;;;;;;;;5042143;28;45360;-66
2022/09/02 05:31:13;;;;;;;;;64.75;51.25;;;;;;;;5041574;28;45361;-66
2022/09/02 05:33:40;;;;;;;;;47.75;40.75;;;;;;;;5040947;28;45544;-66
2022/09/02 05:36:11;;;;;;;;;40.75;35.50;;;;;;;;5041504;28;46153;-66
2022/09/02 05:38:36;;;;;;;;;29.75;29.50;;;;;;;;5041255;28;45325;-66
2022/09/02 05:41:06;;;;;;;;;24.50;21.25;;;;;;;;5042288;28;45238;-66
2022/09/02 05:43:34;;;;;;;;;16.50;16.25;;;;;;;;5039839;28;45640;-66
2022/09/02 05:46:02;;;;;;;;;21.00;17.00;;;;;;;;5042021;28;46111;-65
2022/09/02 05:51:11;;;;;;;;;20.00;18.75;;;;;;;;5034689;28;45897;-66
2022/09/02 05:53:36;;;;;;;;;17.25;17.25;;;;;;;;5046335;28;45407;-66
2022/09/02 05:56:05;;;;;;;;;18.50;15.25;;;;;;;;5040192;28;45718;-66
2022/09/02 05:58:31;;;;;;;;;20.00;16.00;;;;;;;;5042247;28;45376;-66
2022/09/02 06:00:56;;;;;;;;;15.75;15.75;;;;;;;;5058009;28;45401;-66
2022/09/02 06:03:21;;;;;;;;;18.67;17.33;;;;;;;;5040029;28;45382;-66
2022/09/02 06:05:56;;;;;;;;;20.50;17.50;;;;;;;;5041685;28;46597;-66
2022/09/02 06:08:22;;;;;;;;;18.75;17.00;;;;;;;;5038243;28;45295;-66
2022/09/02 06:10:47;;;;;;;;;15.00;15.00;;;;;;;;5043238;28;45342;-66
2022/09/02 06:13:14;;;;;;;;;17.50;17.25;;;;;;;;5040871;28;45883;-65
2022/09/02 06:15:42;;;;;;;;;19.75;17.50;;;;;;;;5041743;28;46187;-66
2022/09/02 06:18:08;;;;;;;;;17.00;15.00;;;;;;;;5050723;28;45502;-66
2022/09/02 06:20:33;;;;;;;;;23.25;18.25;;;;;;;;5041361;28;45428;-66
2022/09/02 06:22:58;;;;;;;;;16.00;15.67;;;;;;;;5038966;28;45475;-66
2022/09/02 06:25:23;;;;;;;;;17.25;17.25;;;;;;;;5041471;28;45445;-66
2022/09/02 06:27:48;;;;;;;;;17.50;15.25;;;;;;;;5038944;28;45387;-66
2022/09/02 06:30:14;;;;;;;;;19.00;19.00;;;;;;;;5040262;28;45260;-67
2022/09/02 06:32:39;;;;;;;;;16.67;16.00;;;;;;;;5053880;28;45326;-66
2022/09/02 06:35:07;;;;;;;;;18.00;18.00;;;;;;;;5037737;28;47301;-66
2022/09/02 06:37:32;;;;;;;;;18.50;17.25;;;;;;;;5049674;28;45319;-67
2022/09/02 06:39:57;;;;;;;;;15.00;14.25;;;;;;;;5034409;28;45209;-66
2022/09/02 06:42:23;;;;;;;;;23.00;21.00;;;;;;;;5037956;28;45341;-67
2022/09/02 06:44:48;;;;;;;;;20.50;18.50;;;;;;;;5054720;28;45403;-66
2022/09/02 06:47:13;;;;;;;;;23.25;17.25;;;;;;;;5038246;28;46215;-66
2022/09/02 06:49:38;;;;;;;;;15.50;15.25;;;;;;;;5041676;28;45439;-66
2022/09/02 06:52:04;;;;;;;;;20.25;18.75;;;;;;;;5039858;28;45404;-66
2022/09/02 06:54:29;;;;;;;;;16.75;15.50;;;;;;;;5052849;28;47130;-66
2022/09/02 06:56:55;;;;;;;;;19.00;18.75;;;;;;;;5033494;28;45241;-66
2022/09/02 06:59:20;;;;;;;;;18.00;16.50;;;;;;;;5040399;28;45377;-66
2022/09/02 07:01:46;;;;;;;;;20.00;16.75;;;;;;;;5032901;28;45856;-66
2022/09/02 07:06:55;;;;;;;;;16.50;14.50;;;;;;;;5034949;28;45309;-67
2022/09/02 07:09:23;;;;;;;;;16.67;16.67;;;;;;;;5040581;28;45301;-66
2022/09/02 07:11:48;;;;;;;;;12.00;12.00;;;;;;;;5036539;28;45404;-66
2022/09/02 07:14:19;;;;;;;;;20.00;19.00;;;;;;;;5039888;28;45429;-66
2022/09/02 07:16:46;;;;;;;;;18.33;18.33;;;;;;;;5027523;28;45298;-67
2022/09/02 07:19:11;;;;;;;;;17.33;15.33;;;;;;;;5038730;28;45237;-67
2022/09/02 07:21:36;;;;;;;;;21.25;20.00;;;;;;;;5037709;28;45703;-66
2022/09/02 07:24:02;;;;;;;;;16.00;14.67;;;;;;;;5038577;28;45505;-67
2022/09/02 07:26:28;;;;;;;;;15.00;13.25;;;;;;;;5040252;28;45705;-67
2022/09/02 07:28:53;;;;;;;;;14.67;14.33;;;;;;;;5053548;28;45388;-66
2022/09/02 07:31:18;;;;;;;;;20.00;17.75;;;;;;;;5033383;28;45486;-66
2022/09/02 07:33:44;;;;;;;;;13.75;13.75;;;;;;;;5037266;28;46035;-66
2022/09/02 07:36:09;;;;;;;;;19.25;17.50;;;;;;;;5040506;28;45334;-66
2022/09/02 07:38:35;;;;;;;;;16.25;16.25;;;;;;;;5040496;28;45480;-66
2022/09/02 07:41:01;;;;;;;;;14.75;13.75;;;;;;;;5041404;28;46317;-66
2022/09/02 07:43:26;;;;;;;;;18.00;15.33;;;;;;;;5036863;28;45501;-66
2022/09/02 07:45:54;;;;;;;;;16.33;13.33;;;;;;;;5037420;28;45581;-65
2022/09/02 07:48:19;;;;;;;;;15.67;15.67;;;;;;;;5037403;28;45402;-66
2022/09/02 07:50:46;;;;;;;;;21.75;18.25;;;;;;;;5042319;28;45408;-66
2022/09/02 07:53:12;;;;;;;;;20.00;18.50;;;;;;;;5036887;28;45733;-66
2022/09/02 07:55:39;;;;;;;;;18.00;16.75;;;;;;;;5056830;28;45802;-66
2022/09/02 07:58:05;;;;;;;;;17.25;14.50;;;;;;;;5038160;28;45472;-66
2022/09/02 08:00:30;;;;;;;;;19.25;19.25;;;;;;;;5057381;28;45605;-66
2022/09/02 08:02:56;;;;;;;;;18.67;16.67;;;;;;;;5038519;28;45650;-65
2022/09/02 08:05:21;;;;;;;;;16.00;16.00;;;;;;;;5040058;28;45446;-67
2022/09/02 08:07:46;;;;;;;;;16.00;15.00;;;;;;;;5038202;28;45436;-66
2022/09/02 08:10:13;;;;;;;;;24.25;21.25;;;;;;;;5045056;28;45331;-67
2022/09/02 08:12:39;;;;;;;;;15.75;15.75;;;;;;;;5037631;28;45558;-67
2022/09/02 08:15:05;;;;;;;;;20.75;18.00;;;;;;;;5044802;28;45160;-67
2022/09/02 08:17:30;;;;;;;;;17.00;16.25;;;;;;;;5038483;28;45266;-67
2022/09/02 08:19:56;;;;;;;;;18.75;18.75;;;;;;;;5044480;28;45507;-67
2022/09/02 08:22:21;;;;;;;;;15.00;12.33;;;;;;;;5036796;28;45241;-67
2022/09/02 08:24:46;;;;;;;;;22.50;22.50;;;;;;;;5044851;28;45191;-67
2022/09/02 08:27:12;;;;;;;;;18.75;18.75;;;;;;;;5057986;28;45582;-67
2022/09/02 08:29:37;;;;;;;;;18.00;15.33;;;;;;;;5059916;28;45363;-65
2022/09/02 08:32:03;;;;;;;;;20.67;17.67;;;;;;;;5054373;28;46835;-67
2022/09/02 08:34:28;;;;;;;;;14.67;13.33;;;;;;;;5044600;28;45242;-67
2022/09/02 08:36:53;;;;;;;;;15.00;13.67;;;;;;;;5037992;28;45630;-65
2022/09/02 08:39:19;;;;;;;;;16.33;15.00;;;;;;;;5044744;28;45442;-67
2022/09/02 08:41:58;;;;;;;;;15.33;13.33;;;;;;;;5040503;28;46261;-68
2022/09/02 08:44:24;;;;;;;;;16.33;15.33;;;;;;;;5044002;28;45405;-67
2022/09/02 08:46:52;;;;;;;;;15.33;13.33;;;;;;;;5040253;28;45307;-66
2022/09/02 08:49:24;;;;;;;;;18.00;16.67;;;;;;;;5052991;28;45579;-66
2022/09/02 08:51:51;;;;;;;;;21.50;18.50;;;;;;;;5040816;28;45244;-66
2022/09/02 08:54:31;;;;;;;;;14.33;14.00;;;;;;;;5043713;28;45507;-66
2022/09/02 08:56:56;;;;;;;;;20.33;17.33;;;;;;;;5039219;28;45447;-66
2022/09/02 08:59:24;;;;;;;;;13.00;11.33;;;;;;;;5044025;28;45396;-66
2022/09/02 09:01:53;;;;;;;;;27.75;21.75;;;;;;;;5040318;28;46658;-66
2022/09/02 09:04:22;;;;;;;;;21.00;18.00;;;;;;;;5022802;28;45457;-67
2022/09/02 09:06:53;;;;;;;;;18.67;17.33;;;;;;;;5038779;28;45247;-66
2022/09/02 09:09:18;;;;;;;;;19.50;16.50;;;;;;;;5043559;28;45471;-67
2022/09/02 09:11:56;;;;;;;;;17.50;14.50;;;;;;;;5039030;28;45245;-67
2022/09/02 09:14:29;;;;;;;;;25.00;21.00;;;;;;;;5042919;28;45316;-67
2022/09/02 09:16:58;;;;;;;;;22.50;19.75;;;;;;;;5038142;28;45352;-67
2022/09/02 09:19:42;;;;;;;;;24.00;21.75;;;;;;;;5043115;28;45328;-68
2022/09/02 09:22:11;;;;;;;;;23.50;20.25;;;;;;;;5053303;28;46338;-65
2022/09/02 09:24:44;;;;;;;;;21.00;21.00;;;;;;;;5043627;28;45156;-66
2022/09/02 09:27:19;;;;;;;;;15.00;15.00;;;;;;;;5036049;28;45642;-66
2022/09/02 09:29:45;;;;;;;;;20.75;20.75;;;;;;;;5042770;28;45317;-66
2022/09/02 09:32:16;;;;;;;;;26.00;22.75;;;;;;;;5036942;28;47197;-65
2022/09/02 09:34:50;;;;;;;;;20.50;20.25;;;;;;;;5043252;28;45366;-66
2022/09/02 09:37:29;;;;;;;;;21.25;19.25;;;;;;;;5037957;28;45601;-66
2022/09/02 09:39:55;;;;;;;;;21.00;18.50;;;;;;;;5042423;28;45338;-65
2022/09/02 09:42:29;;;;;;;;;26.50;22.50;;;;;;;;5038087;28;45437;-67
2022/09/02 09:44:54;;;;;;;;;24.50;23.00;;;;;;;;5042321;28;45412;-65
2022/09/02 09:47:21;;;;;;;;;21.00;19.75;;;;;;;;5038651;28;45311;-65
2022/09/02 09:50:07;;;;;;;;;22.25;20.75;;;;;;;;5041235;28;45479;-65
2022/09/02 09:52:32;;;;;;;;;20.00;17.50;;;;;;;;5041412;28;45526;-67
2022/09/02 09:55:26;;;;;;;;;23.00;21.75;;;;;;;;5043438;28;45412;-66
2022/09/02 09:58:05;;;;;;;;;23.25;21.50;;;;;;;;5017907;28;45403;-66
2022/09/02 10:00:32;;;;;;;;;26.50;25.00;;;;;;;;5040440;28;45457;-67
2022/09/02 10:03:02;;;;;;;;;22.00;19.25;;;;;;;;5036087;28;45550;-65
2022/09/02 10:05:29;;;;;;;;;24.50;21.50;;;;;;;;5043361;28;45291;-66
2022/09/02 10:07:56;;;;;;;;;23.50;22.25;;;;;;;;5035833;28;45439;-66
2022/09/02 10:10:22;;;;;;;;;30.75;27.00;;;;;;;;5043737;28;45419;-66
2022/09/02 10:12:48;;;;;;;;;26.50;23.75;;;;;;;;5039223;28;46240;-66
2022/09/02 10:15:18;;;;;;;;;25.00;23.00;;;;;;;;5042798;28;45226;-65
2022/09/02 10:17:56;;;;;;;;;23.50;21.50;;;;;;;;5040699;28;45420;-66
2022/09/02 10:20:26;;;;;;;;;18.75;18.50;;;;;;;;5043209;28;45322;-66
2022/09/02 10:22:52;;;;;;;;;20.25;17.25;;;;;;;;5035817;28;46320;-65
2022/09/02 10:25:20;;;;;;;;;27.50;25.25;;;;;;;;5042949;28;45404;-67
2022/09/02 10:28:06;;;;;;;;;33.75;31.75;;;;;;;;5039655;28;45376;-65
2022/09/02 10:30:35;;;;;;;;;24.00;23.00;;;;;;;;5042086;28;45697;-66
2022/09/02 10:33:03;;;;;;;;;24.50;24.50;;;;;;;;5038414;28;46161;-67
2022/09/02 10:35:28;;;;;;;;;19.50;18.75;;;;;;;;5042658;28;45311;-67
2022/09/02 10:38:11;;;;;;;;;22.75;20.25;;;;;;;;5038210;28;45500;-67
2022/09/02 10:40:42;;;;;;;;;22.00;22.00;;;;;;;;5041460;28;45574;-67
2022/09/02 10:43:10;;;;;;;;;19.75;19.75;;;;;;;;5040091;28;45830;-67
2022/09/02 10:45:35;;;;;;;;;24.00;22.50;;;;;;;;5042948;28;45423;-67
2022/09/02 10:48:20;;;;;;;;;24.00;20.25;;;;;;;;5036484;28;45632;-67
2022/09/02 10:50:54;;;;;;;;;23.25;23.25;;;;;;;;5043286;28;45298;-67
2022/09/02 10:53:38;;;;;;;;;29.25;24.25;;;;;;;;5037821;28;45393;-65
2022/09/02 10:56:09;;;;;;;;;21.25;21.25;;;;;;;;5035477;28;45430;-67
2022/09/02 10:58:55;;;;;;;;;26.75;22.75;;;;;;;;5038473;28;45479;-67
2022/09/02 11:01:24;;;;;;;;;28.00;25.50;;;;;;;;5038419;28;45640;-67
2022/09/02 11:04:15;;;;;;;;;30.50;26.25;;;;;;;;5053548;28;46883;-66
2022/09/02 11:06:43;;;;;;;;;23.00;23.00;;;;;;;;5026256;28;45408;-66
2022/09/02 11:09:27;;;;;;;;;23.75;22.00;;;;;;;;5039804;28;45428;-67
2022/09/02 11:11:56;;;;;;;;;25.50;23.25;;;;;;;;5037803;28;45401;-66
2022/09/02 11:14:40;;;;;;;;;25.00;23.50;;;;;;;;5040969;28;46462;-66
2022/09/02 11:17:35;;;;;;;;;29.50;27.50;;;;;;;;5035591;28;45394;-66
2022/09/02 11:20:09;;;;;;;;;24.75;23.50;;;;;;;;4985299;28;45553;-66
2022/09/02 11:22:52;;;;;;;;;23.75;21.50;;;;;;;;5033802;28;45724;-66
2022/09/02 11:25:26;;;;;;;;;27.75;25.75;;;;;;;;5041818;28;45466;-66
2022/09/02 11:27:57;;;;;;;;;28.00;26.25;;;;;;;;5038636;28;45463;-66
2022/09/02 11:30:24;;;;;;;;;26.75;24.75;;;;;;;;5041795;28;45313;-66
2022/09/02 11:33:08;;;;;;;;;25.50;25.00;;;;;;;;5053098;28;45532;-66
2022/09/02 11:35:37;;;;;;;;;24.00;22.75;;;;;;;;5043065;28;45524;-66
2022/09/02 11:38:02;;;;;;;;;26.75;25.75;;;;;;;;5059004;28;45281;-66
2022/09/02 11:40:36;;;;;;;;;31.75;28.50;;;;;;;;5044866;28;45555;-66
2022/09/02 11:43:01;;;;;;;;;26.50;25.50;;;;;;;;5043571;28;45335;-67
2022/09/02 11:45:30;;;;;;;;;28.50;27.25;;;;;;;;5043229;28;46854;-67
2022/09/02 11:47:58;;;;;;;;;24.75;23.00;;;;;;;;5043864;28;45231;-66
2022/09/02 11:50:28;;;;;;;;;32.75;30.50;;;;;;;;5045593;28;45345;-66
2022/09/02 11:53:17;;;;;;;;;29.50;26.50;;;;;;;;5043922;28;45456;-66
2022/09/02 11:55:47;;;;;;;;;30.75;30.00;;;;;;;;5029115;28;46465;-66
2022/09/02 11:58:29;;;;;;;;;25.25;25.25;;;;;;;;5039249;28;45419;-66
2022/09/02 12:00:54;;;;;;;;;27.25;27.25;;;;;;;;5045405;28;45380;-66
2022/09/02 12:03:22;;;;;;;;;30.75;30.25;;;;;;;;5042477;28;48442;-66
2022/09/02 12:05:48;;;;;;;;;24.50;24.25;;;;;;;;5045345;28;45743;-66
2022/09/02 12:08:35;;;;;;;;;27.75;25.75;;;;;;;;5038270;28;45413;-66
2022/09/02 12:11:03;;;;;;;;;24.00;22.50;;;;;;;;5032937;28;45234;-66
2022/09/02 12:13:31;;;;;;;;;27.75;27.75;;;;;;;;5054870;28;45686;-66
2022/09/02 12:16:14;;;;;;;;;28.25;26.25;;;;;;;;5044890;28;45388;-66
2022/09/02 12:18:41;;;;;;;;;29.25;26.50;;;;;;;;5040887;28;45448;-66
2022/09/02 12:21:10;;;;;;;;;26.00;24.00;;;;;;;;5042864;28;45411;-65
2022/09/02 12:23:47;;;;;;;;;30.25;30.25;;;;;;;;5042886;28;45425;-66
2022/09/02 12:26:13;;;;;;;;;27.00;25.75;;;;;;;;5040427;28;46950;-65
2022/09/02 12:28:40;;;;;;;;;24.50;22.00;;;;;;;;5041527;28;45384;-65
2022/09/02 12:31:07;;;;;;;;;25.00;24.25;;;;;;;;5044026;28;45307;-65
2022/09/02 12:33:33;;;;;;;;;21.50;21.50;;;;;;;;5033537;28;45589;-65
2022/09/02 12:35:59;;;;;;;;;24.00;22.00;;;;;;;;5041847;28;46329;-66
2022/09/02 12:38:31;;;;;;;;;33.25;32.00;;;;;;;;5041407;28;45340;-65
2022/09/02 12:41:05;;;;;;;;;35.50;30.50;;;;;;;;5044176;28;45379;-65
2022/09/02 12:43:31;;;;;;;;;23.00;21.50;;;;;;;;5041439;28;45416;-65
2022/09/02 12:46:03;;;;;;;;;27.25;25.25;;;;;;;;5035370;28;45382;-66
2022/09/02 12:48:38;;;;;;;;;24.00;24.00;;;;;;;;5032884;28;45449;-66
2022/09/02 12:51:03;;;;;;;;;23.50;23.50;;;;;;;;5044035;28;45378;-66
2022/09/02 12:53:32;;;;;;;;;27.75;25.00;;;;;;;;5039644;28;45531;-66
2022/09/02 12:56:17;;;;;;;;;21.00;19.50;;;;;;;;5051979;28;45786;-66
2022/09/02 12:58:56;;;;;;;;;22.75;22.75;;;;;;;;5040469;28;45581;-66
2022/09/02 13:01:41;;;;;;;;;29.50;26.75;;;;;;;;5041503;28;45309;-66
2022/09/02 13:04:13;;;;;;;;;22.00;22.00;;;;;;;;5041442;28;45281;-66
2022/09/02 13:06:47;;;;;;;;;24.50;22.75;;;;;;;;5041073;28;46047;-66
2022/09/02 13:09:12;;;;;;;;;21.25;19.75;;;;;;;;5039108;28;45295;-66
2022/09/02 13:12:04;;;;;;;;;23.25;21.25;;;;;;;;5041836;28;45490;-66
2022/09/02 13:14:49;;;;;;;;;24.75;23.75;;;;;;;;5038374;28;45515;-66
2022/09/02 13:17:21;;;;;;;;;24.25;20.50;;;;;;;;5034206;28;45486;-66
2022/09/02 13:20:07;;;;;;;;;26.00;24.25;;;;;;;;5044102;28;45404;-67
2022/09/02 13:22:32;;;;;;;;;24.50;23.00;;;;;;;;5038984;28;45519;-65
2022/09/02 13:25:25;;;;;;;;;23.50;23.00;;;;;;;;5044476;28;45340;-66
2022/09/02 13:28:17;;;;;;;;;23.75;23.75;;;;;;;;5039451;28;46583;-65
2022/09/02 13:31:06;;;;;;;;;24.75;24.50;;;;;;;;5041536;28;45417;-66
2022/09/02 13:33:31;;;;;;;;;22.00;21.50;;;;;;;;5033401;28;45471;-65
2022/09/02 13:35:58;;;;;;;;;25.75;25.75;;;;;;;;5044028;28;45350;-66
2022/09/02 13:38:24;;;;;;;;;17.25;17.25;;;;;;;;5040089;28;45545;-66
2022/09/02 13:40:49;;;;;;;;;19.75;19.50;;;;;;;;5043320;28;45516;-67
2022/09/02 13:43:19;;;;;;;;;14.75;14.75;;;;;;;;5038193;28;45350;-66
2022/09/02 13:45:45;;;;;;;;;17.75;16.25;;;;;;;;5056014;28;45464;-66
2022/09/02 13:48:15;;;;;;;;;16.00;16.00;;;;;;;;5036396;28;45429;-66
2022/09/02 13:50:42;;;;;;;;;17.00;16.67;;;;;;;;5042297;28;45641;-66
2022/09/02 13:53:09;;;;;;;;;18.25;18.25;;;;;;;;5038516;28;45389;-66
2022/09/02 13:55:35;;;;;;;;;23.75;23.75;;;;;;;;5044109;28;45323;-66
2022/09/02 13:58:02;;;;;;;;;21.25;20.75;;;;;;;;5033219;28;45424;-66
2022/09/02 14:00:27;;;;;;;;;16.75;15.75;;;;;;;;5043273;28;45326;-65
2022/09/02 14:02:58;;;;;;;;;18.25;18.25;;;;;;;;5036641;28;45460;-65
2022/09/02 14:05:24;;;;;;;;;19.75;19.75;;;;;;;;5043556;28;45286;-65
2022/09/02 14:07:51;;;;;;;;;20.00;19.50;;;;;;;;5036563;28;45441;-66
2022/09/02 14:10:21;;;;;;;;;19.25;16.25;;;;;;;;5043081;28;45234;-66
2022/09/02 14:12:46;;;;;;;;;18.75;18.00;;;;;;;;5036498;28;45314;-66
2022/09/02 14:15:13;;;;;;;;;18.25;18.25;;;;;;;;5043029;28;45668;-66
2022/09/02 14:17:39;;;;;;;;;19.25;18.25;;;;;;;;5039226;28;45390;-66
2022/09/02 14:20:07;;;;;;;;;18.75;18.00;;;;;;;;5058120;28;45264;-66
2022/09/02 14:22:34;;;;;;;;;21.00;21.00;;;;;;;;5037443;28;45535;-66
2022/09/02 14:24:59;;;;;;;;;21.25;18.25;;;;;;;;5043115;28;45700;-66
2022/09/02 14:27:25;;;;;;;;;31.25;28.50;;;;;;;;5040133;28;46411;-66
2022/09/02 14:29:57;;;;;;;;;20.25;19.25;;;;;;;;5037473;28;45367;-66
2022/09/02 14:32:22;;;;;;;;;21.00;17.25;;;;;;;;5037200;28;45290;-66
2022/09/02 14:34:48;;;;;;;;;22.50;20.75;;;;;;;;5039458;28;45393;-66